Station History

Weather Underground - logo

Station Historical Data
Daily Summary for December 28, 2017 Units:  English    Metric   Both
« Previous Day
Next Day »
Daily Weekly Monthly Yearly Custom
  High: Low: Average:
Temperature: 62.2 °F 33.9 °F 46.2 °F
Dew Point: 43.7 °F 31.6 °F 38.5 °F
Humidity: 93 % 48 % 77 %
Wind Speed: 3.5 mph 0.0 mph 0.2 mph
Wind Gust: 3.5 mph - -
Wind:- - WSW
Pressure: 30.32 in 30.21 in -
Precipitation: 0.00 in    
Historical Graphs
 
 
Tabular Data for December 28, 2017
Time Temperature Dew Point Pressure Wind Wind Speed Wind Gust Humidity Rainfall Rate (Hourly)
00:03 40.9 °F 36.4 °F 30.32 in Calm     84 % 0.00 in
00:06 40.7 °F 36.2 °F 30.31 in Calm     84 % 0.00 in
00:11 40.7 °F 36.8 °F 30.31 in East 1.2 mph 1.2 mph 86 % 0.00 in
00:12 40.8 °F 36.9 °F 30.32 in East 1.2 mph 1.2 mph 86 % 0.00 in
00:17 41.3 °F 37.1 °F 30.32 in Calm     85 % 0.00 in
00:22 41.5 °F 37.0 °F 30.31 in East 1.2 mph   84 % 0.00 in
00:27 41.8 °F 37.3 °F 30.31 in Calm     84 % 0.00 in
00:29 41.8 °F 37.0 °F 30.31 in Calm     83 % 0.00 in
00:34 41.6 °F 36.8 °F 30.31 in Calm     83 % 0.00 in
00:35 41.5 °F 36.7 °F 30.31 in Calm     83 % 0.00 in
00:40 40.7 °F 35.9 °F 30.30 in Calm     83 % 0.00 in
00:42 40.4 °F 35.6 °F 30.30 in Calm     83 % 0.00 in
00:47 39.8 °F 35.4 °F 30.30 in East 1.2 mph   84 % 0.00 in
00:52 39.3 °F 35.2 °F 30.30 in Calm     85 % 0.00 in
00:53 39.2 °F 35.1 °F 30.29 in Calm     85 % 0.00 in
00:58 38.9 °F 35.1 °F 30.29 in Calm     86 % 0.00 in
01:03 38.7 °F 35.2 °F 30.29 in Calm     87 % 0.00 in
01:05 38.7 °F 35.2 °F 30.29 in Calm     87 % 0.00 in
01:09 38.4 °F 34.6 °F 30.29 in Calm     86 % 0.00 in
01:11 38.3 °F 34.5 °F 30.29 in Calm     86 % 0.00 in
01:16 38.0 °F 34.5 °F 30.29 in Calm     87 % 0.00 in
01:19 37.9 °F 34.4 °F 30.29 in Calm     87 % 0.00 in
01:24 37.6 °F 34.1 °F 30.29 in Calm     87 % 0.00 in
01:26 37.5 °F 34.3 °F 30.29 in Calm     88 % 0.00 in
01:29 37.6 °F 34.4 °F 30.29 in Calm     88 % 0.00 in
01:32 37.6 °F 34.7 °F 30.29 in Calm     89 % 0.00 in
01:36 37.6 °F 34.7 °F 30.29 in Calm     89 % 0.00 in
01:39 37.6 °F 34.7 °F 30.29 in Calm     89 % 0.00 in
01:44 37.7 °F 34.8 °F 30.29 in Calm     89 % 0.00 in
01:45 37.7 °F 34.8 °F 30.29 in Calm     89 % 0.00 in
01:46 37.7 °F 34.8 °F 30.29 in Calm     89 % 0.00 in
01:51 37.7 °F 34.8 °F 30.29 in Calm     89 % 0.00 in
01:56 37.6 °F 34.7 °F 30.29 in Calm     89 % 0.00 in
01:59 37.3 °F 34.1 °F 30.29 in Calm     88 % 0.00 in
02:04 37.1 °F 34.2 °F 30.30 in Calm     89 % 0.00 in
02:06 37.0 °F 34.1 °F 30.29 in Calm     89 % 0.00 in
02:09 36.9 °F 34.0 °F 30.29 in Calm     89 % 0.00 in
02:12 36.8 °F 33.9 °F 30.30 in Calm     89 % 0.00 in
02:17 36.8 °F 34.1 °F 30.30 in Calm     90 % 0.00 in
02:18 36.8 °F 34.1 °F 30.30 in Calm     90 % 0.00 in
02:23 36.9 °F 34.5 °F 30.30 in Calm     91 % 0.00 in
02:28 37.1 °F 34.7 °F 30.30 in Calm     91 % 0.00 in
02:29 37.1 °F 34.7 °F 30.30 in Calm     91 % 0.00 in
02:33 37.4 °F 35.0 °F 30.30 in Calm     91 % 0.00 in
02:35 37.5 °F 35.1 °F 30.30 in Calm     91 % 0.00 in
02:40 37.7 °F 35.3 °F 30.30 in Calm     91 % 0.00 in
02:41 37.8 °F 35.4 °F 30.30 in Calm     91 % 0.00 in
02:42 37.8 °F 35.1 °F 30.30 in Calm     90 % 0.00 in
02:47 37.8 °F 35.1 °F 30.29 in Calm     90 % 0.00 in
02:50 37.7 °F 35.0 °F 30.29 in Calm     90 % 0.00 in
02:51 37.7 °F 35.0 °F 30.29 in Calm     90 % 0.00 in
02:55 37.7 °F 35.0 °F 30.30 in Calm     90 % 0.00 in
02:56 37.7 °F 35.0 °F 30.30 in Calm     90 % 0.00 in
03:01 38.0 °F 35.3 °F 30.30 in East 1.2 mph 1.2 mph 90 % 0.00 in
03:02 38.0 °F 35.3 °F 30.30 in Calm     90 % 0.00 in
03:07 38.2 °F 35.5 °F 30.29 in Calm     90 % 0.00 in
03:08 38.2 °F 35.5 °F 30.29 in Calm     90 % 0.00 in
03:14 38.3 °F 35.3 °F 30.29 in Calm     89 % 0.00 in
03:19 38.3 °F 35.1 °F 30.29 in Calm     88 % 0.00 in
03:22 38.1 °F 34.9 °F 30.29 in Calm     88 % 0.00 in
03:27 37.7 °F 34.5 °F 30.29 in Calm     88 % 0.00 in
03:28 37.6 °F 34.4 °F 30.30 in Calm     88 % 0.00 in
03:31 37.2 °F 34.0 °F 30.30 in Calm     88 % 0.00 in
03:34 36.9 °F 33.7 °F 30.30 in Calm     88 % 0.00 in
03:39 37.3 °F 34.6 °F 30.30 in East 1.2 mph 1.2 mph 90 % 0.00 in
03:41 37.5 °F 34.8 °F 30.30 in Calm     90 % 0.00 in
03:46 37.9 °F 35.2 °F 30.30 in Calm     90 % 0.00 in
03:49 38.4 °F 35.7 °F 30.30 in East 1.2 mph 1.2 mph 90 % 0.00 in
03:52 38.8 °F 35.8 °F 30.30 in East 1.0 mph   89 % 0.00 in
03:57 39.1 °F 35.8 °F 30.29 in Calm     88 % 0.00 in
03:59 39.1 °F 35.8 °F 30.29 in Calm     88 % 0.00 in
04:04 39.1 °F 35.8 °F 30.29 in Calm     88 % 0.00 in
04:06 39.2 °F 35.9 °F 30.29 in Calm     88 % 0.00 in
04:11 39.4 °F 36.1 °F 30.29 in Calm     88 % 0.00 in
04:15 39.5 °F 36.0 °F 30.29 in East 1.2 mph   87 % 0.00 in
04:20 39.5 °F 35.7 °F 30.29 in Calm     86 % 0.00 in
04:25 39.4 °F 35.6 °F 30.28 in Calm     86 % 0.00 in
04:31 39.1 °F 35.3 °F 30.28 in Calm     86 % 0.00 in
04:36 38.6 °F 34.8 °F 30.28 in Calm     86 % 0.00 in
04:39 38.2 °F 34.1 °F 30.28 in Calm     85 % 0.00 in
04:44 37.6 °F 34.1 °F 30.28 in Calm     87 % 0.00 in
04:49 37.2 °F 34.0 °F 30.27 in Calm     88 % 0.00 in
04:52 36.8 °F 33.3 °F 30.27 in Calm     87 % 0.00 in
04:57 35.9 °F 32.4 °F 30.27 in Calm     87 % 0.00 in
04:59 35.6 °F 32.4 °F 30.27 in Calm     88 % 0.00 in
05:03 35.4 °F 32.2 °F 30.27 in East 1.2 mph   88 % 0.00 in
05:06 35.2 °F 32.3 °F 30.27 in East 1.2 mph   89 % 0.00 in
05:08 35.0 °F 32.1 °F 30.27 in Calm     89 % 0.00 in
05:10 34.9 °F 32.3 °F 30.27 in Calm     90 % 0.00 in
05:14 34.8 °F 32.2 °F 30.27 in Calm     90 % 0.00 in
05:16 34.8 °F 32.2 °F 30.27 in Calm     90 % 0.00 in
05:20 34.7 °F 32.3 °F 30.28 in Calm     91 % 0.00 in
05:25 34.5 °F 32.1 °F 30.27 in East 1.2 mph   91 % 0.00 in
05:27 34.5 °F 32.1 °F 30.27 in East 1.0 mph 1.0 mph 91 % 0.00 in
05:32 34.2 °F 31.8 °F 30.27 in Calm     91 % 0.00 in
05:33 34.1 °F 31.7 °F 30.27 in Calm     91 % 0.00 in
05:38 34.0 °F 31.6 °F 30.27 in Calm     91 % 0.00 in
05:39 34.0 °F 31.6 °F 30.27 in Calm     91 % 0.00 in
05:44 33.9 °F 31.6 °F 30.28 in Calm     91 % 0.00 in
05:45 33.9 °F 31.6 °F 30.28 in Calm     91 % 0.00 in
05:47 34.0 °F 31.9 °F 30.28 in Calm     92 % 0.00 in
05:52 34.0 °F 31.9 °F 30.28 in Calm     92 % 0.00 in
05:57 34.1 °F 32.0 °F 30.28 in Calm     92 % 0.00 in
05:58 34.1 °F 32.0 °F 30.28 in Calm     92 % 0.00 in
06:00 34.2 °F 32.1 °F 30.28 in Calm     92 % 0.00 in
06:04 34.2 °F 32.1 °F 30.28 in Calm     92 % 0.00 in
06:07 34.2 °F 32.1 °F 30.28 in Calm     92 % 0.00 in
06:11 34.2 °F 32.1 °F 30.28 in Calm     92 % 0.00 in
06:15 34.2 °F 32.1 °F 30.28 in Calm     92 % 0.00 in
06:20 34.3 °F 32.2 °F 30.28 in Calm     92 % 0.00 in
06:21 34.3 °F 32.2 °F 30.28 in Calm     92 % 0.00 in
06:26 34.6 °F 32.8 °F 30.28 in Calm     93 % 0.00 in
06:31 34.8 °F 33.0 °F 30.29 in Calm     93 % 0.00 in
06:32 34.8 °F 33.0 °F 30.29 in Calm     93 % 0.00 in
06:35 35.0 °F 33.2 °F 30.29 in Calm     93 % 0.00 in
06:38 35.1 °F 33.3 °F 30.29 in Calm     93 % 0.00 in
06:43 35.3 °F 33.5 °F 30.29 in Calm     93 % 0.00 in
06:44 35.4 °F 33.6 °F 30.29 in Calm     93 % 0.00 in
06:45 35.4 °F 33.6 °F 30.29 in Calm     93 % 0.00 in
06:50 35.5 °F 33.4 °F 30.29 in Calm     92 % 0.00 in
06:56 35.5 °F 33.4 °F 30.29 in Calm     92 % 0.00 in
07:02 35.7 °F 33.6 °F 30.29 in Calm     92 % 0.00 in
07:04 35.7 °F 33.6 °F 30.29 in Calm     92 % 0.00 in
07:09 35.7 °F 33.3 °F 30.30 in Calm     91 % 0.00 in
07:10 35.6 °F 33.2 °F 30.30 in Calm     91 % 0.00 in
07:11 35.6 °F 33.2 °F 30.30 in Calm     91 % 0.00 in
07:16 35.3 °F 32.9 °F 30.30 in Calm     91 % 0.00 in
07:18 35.4 °F 33.0 °F 30.30 in Calm     91 % 0.00 in
07:22 35.4 °F 33.3 °F 30.30 in Calm     92 % 0.00 in
07:27 35.5 °F 33.4 °F 30.30 in Calm     92 % 0.00 in
07:32 35.3 °F 32.9 °F 30.30 in Calm     91 % 0.00 in
07:34 35.4 °F 33.3 °F 30.30 in Calm     92 % 0.00 in
07:38 35.5 °F 33.4 °F 30.30 in Calm     92 % 0.00 in
07:39 35.6 °F 33.5 °F 30.30 in Calm     92 % 0.00 in
07:44 35.8 °F 33.7 °F 30.30 in Calm     92 % 0.00 in
07:45 35.8 °F 33.7 °F 30.30 in Calm     92 % 0.00 in
07:50 36.1 °F 34.0 °F 30.30 in Calm     92 % 0.00 in
07:55 36.5 °F 34.4 °F 30.31 in Calm     92 % 0.00 in
07:58 36.6 °F 34.2 °F 30.31 in Calm     91 % 0.00 in
07:59 36.7 °F 34.3 °F 30.31 in Calm     91 % 0.00 in
08:04 36.9 °F 34.5 °F 30.31 in Calm     91 % 0.00 in
08:09 37.2 °F 34.8 °F 30.31 in Calm     91 % 0.00 in
08:11 37.3 °F 34.9 °F 30.31 in Calm     91 % 0.00 in
08:16 37.8 °F 35.4 °F 30.32 in Calm     91 % 0.00 in
08:19 38.2 °F 36.1 °F 30.32 in Calm     92 % 0.00 in
08:21 38.6 °F 36.5 °F 30.32 in Calm     92 % 0.00 in
08:26 38.8 °F 36.1 °F 30.32 in Calm     90 % 0.00 in
08:28 38.9 °F 36.2 °F 30.32 in Calm     90 % 0.00 in
08:33 39.4 °F 36.7 °F 30.32 in Calm     90 % 0.00 in
08:35 39.7 °F 37.0 °F 30.32 in Calm     90 % 0.00 in
08:37 40.1 °F 37.7 °F 30.32 in Calm     91 % 0.00 in
08:41 40.9 °F 38.2 °F 30.32 in Calm     90 % 0.00 in
08:46 41.3 °F 38.0 °F 30.32 in Calm     88 % 0.00 in
08:51 41.8 °F 38.5 °F 30.32 in Calm     88 % 0.00 in
08:56 42.8 °F 39.2 °F 30.32 in Calm     87 % 0.00 in
09:01 44.0 °F 39.8 °F 30.32 in Calm     85 % 0.00 in
09:06 45.3 °F 40.4 °F 30.32 in Calm     83 % 0.00 in
09:08 45.8 °F 40.9 °F 30.32 in Calm     83 % 0.00 in
09:13 47.3 °F 41.8 °F 30.32 in ESE 1.2 mph   81 % 0.00 in
09:14 47.5 °F 41.6 °F 30.32 in Calm     80 % 0.00 in
09:19 48.2 °F 42.0 °F 30.32 in Calm     79 % 0.00 in
09:21 48.5 °F 42.0 °F 30.32 in Calm     78 % 0.00 in
09:26 49.1 °F 41.9 °F 30.32 in Calm     76 % 0.00 in
09:28 49.3 °F 41.7 °F 30.32 in SSE 1.2 mph 1.2 mph 75 % 0.00 in
09:31 49.5 °F 41.9 °F 30.32 in Calm     75 % 0.00 in
09:33 49.7 °F 41.7 °F 30.32 in Calm   0.2 mph 74 % 0.00 in
09:37 50.1 °F 41.8 °F 30.32 in SSE 1.2 mph   73 % 0.00 in
09:39 50.2 °F 41.5 °F 30.32 in South 1.2 mph 1.2 mph 72 % 0.00 in
09:44 50.9 °F 41.8 °F 30.32 in Calm     71 % 0.00 in
09:46 51.0 °F 41.6 °F 30.32 in Calm     70 % 0.00 in
09:52 50.8 °F 41.0 °F 30.32 in NW 1.2 mph 1.2 mph 69 % 0.00 in
09:54 50.7 °F 41.3 °F 30.32 in North 1.2 mph 1.2 mph 70 % 0.00 in
09:59 51.1 °F 41.3 °F 30.32 in WNW 1.2 mph 1.2 mph 69 % 0.00 in
10:04 51.1 °F 41.7 °F 30.32 in Calm     70 % 0.00 in
10:05 51.1 °F 41.3 °F 30.32 in Calm     69 % 0.00 in
10:07 51.1 °F 41.3 °F 30.32 in WNW 1.2 mph 1.2 mph 69 % 0.00 in
10:11 50.9 °F 40.3 °F 30.32 in Calm     67 % 0.00 in
10:16 50.7 °F 40.5 °F 30.32 in Calm     68 % 0.00 in
10:17 50.7 °F 40.5 °F 30.31 in Calm     68 % 0.00 in
10:22 50.7 °F 41.3 °F 30.32 in Calm     70 % 0.00 in
10:27 51.0 °F 40.8 °F 30.31 in Calm     68 % 0.00 in
10:28 51.0 °F 40.8 °F 30.31 in Calm     68 % 0.00 in
10:33 51.1 °F 40.9 °F 30.31 in Calm     68 % 0.00 in
10:38 51.3 °F 41.5 °F 30.31 in Calm     69 % 0.00 in
10:43 52.2 °F 42.0 °F 30.31 in Calm     68 % 0.00 in
10:44 52.2 °F 42.0 °F 30.31 in Calm     68 % 0.00 in
10:49 53.2 °F 42.9 °F 30.31 in SW 1.2 mph   68 % 0.00 in
10:51 53.7 °F 42.2 °F 30.31 in Calm     65 % 0.00 in
10:58 53.6 °F 41.3 °F 30.30 in Calm     63 % 0.00 in
11:03 53.8 °F 41.5 °F 30.30 in WSW 1.2 mph   63 % 0.00 in
11:06 54.0 °F 41.3 °F 30.30 in WNW 1.2 mph   62 % 0.00 in
11:07 54.1 °F 41.8 °F 30.30 in Calm     63 % 0.00 in
11:12 54.6 °F 41.4 °F 30.30 in Calm     61 % 0.00 in
11:17 55.4 °F 42.2 °F 30.29 in Calm     61 % 0.00 in
11:18 55.6 °F 42.4 °F 30.29 in SSE 1.2 mph   61 % 0.00 in
11:23 56.0 °F 41.4 °F 30.29 in Calm     58 % 0.00 in
11:27 55.9 °F 41.3 °F 30.29 in NW 1.2 mph 1.2 mph 58 % 0.00 in
11:30 56.1 °F 42.0 °F 30.28 in WNW 1.0 mph 1.0 mph 59 % 0.00 in
11:35 56.3 °F 42.1 °F 30.28 in Calm   0.1 mph 59 % 0.00 in
11:37 56.4 °F 41.8 °F 30.28 in WNW 1.2 mph 1.2 mph 58 % 0.00 in
11:43 56.7 °F 41.6 °F 30.28 in Calm     57 % 0.00 in
11:48 57.0 °F 41.9 °F 30.28 in Calm     57 % 0.00 in
11:49 57.1 °F 42.0 °F 30.28 in WNW 1.2 mph 1.2 mph 57 % 0.00 in
11:54 57.4 °F 42.3 °F 30.28 in Calm     57 % 0.00 in
11:59 57.8 °F 42.7 °F 30.28 in ESE 1.2 mph   57 % 0.00 in
12:02 58.0 °F 42.4 °F 30.27 in NW 1.2 mph 1.2 mph 56 % 0.00 in
12:07 58.5 °F 42.8 °F 30.27 in ESE 1.2 mph   56 % 0.00 in
12:11 58.6 °F 42.5 °F 30.27 in NW 1.2 mph 1.2 mph 55 % 0.00 in
12:17 58.8 °F 42.7 °F 30.27 in NW 2.3 mph 2.3 mph 55 % 0.00 in
12:18 58.8 °F 42.7 °F 30.26 in NW 1.2 mph   55 % 0.00 in
12:23 59.0 °F 42.8 °F 30.26 in NW 2.0 mph 2.0 mph 55 % 0.00 in
12:27 59.1 °F 42.5 °F 30.26 in Calm     54 % 0.00 in
12:29 59.1 °F 42.5 °F 30.26 in NW 1.2 mph 1.2 mph 54 % 0.00 in
12:34 59.3 °F 42.6 °F 30.26 in NW 3.5 mph 3.5 mph 54 % 0.00 in
12:39 59.5 °F 43.3 °F 30.25 in Calm     55 % 0.00 in
12:43 59.9 °F 43.2 °F 30.25 in WSW 2.3 mph 2.3 mph 54 % 0.00 in
12:48 60.2 °F 43.5 °F 30.25 in WNW 1.2 mph   54 % 0.00 in
12:52 60.4 °F 43.2 °F 30.24 in WNW 1.2 mph   53 % 0.00 in
12:53 60.4 °F 43.2 °F 30.24 in West 2.3 mph 2.3 mph 53 % 0.00 in
12:58 60.3 °F 42.6 °F 30.24 in WNW 1.2 mph   52 % 0.00 in
13:00 60.3 °F 42.6 °F 30.24 in WNW 1.2 mph   52 % 0.00 in
13:02 60.3 °F 42.6 °F 30.24 in Calm     52 % 0.00 in
13:06 60.7 °F 43.5 °F 30.23 in Calm     53 % 0.00 in
13:08 60.9 °F 43.1 °F 30.23 in Calm     52 % 0.00 in
13:13 61.1 °F 42.8 °F 30.23 in Calm     51 % 0.00 in
13:18 61.1 °F 42.8 °F 30.23 in WNW 2.0 mph 2.0 mph 51 % 0.00 in
13:19 61.1 °F 42.8 °F 30.23 in WNW 3.5 mph 3.5 mph 51 % 0.00 in
13:24 61.1 °F 42.8 °F 30.23 in WNW 1.2 mph 1.2 mph 51 % 0.00 in
13:26 61.1 °F 42.3 °F 30.23 in West 1.2 mph 1.2 mph 50 % 0.00 in
13:28 61.1 °F 42.3 °F 30.23 in Calm     50 % 0.00 in
13:32 61.3 °F 43.0 °F 30.22 in Calm     51 % 0.00 in
13:37 61.6 °F 42.8 °F 30.22 in NW 2.0 mph 2.0 mph 50 % 0.00 in
13:40 61.6 °F 42.2 °F 30.22 in North 1.2 mph 1.2 mph 49 % 0.00 in
13:45 61.6 °F 42.8 °F 30.22 in NW 1.2 mph 1.2 mph 50 % 0.00 in
13:49 61.7 °F 42.9 °F 30.22 in NW 1.2 mph 1.2 mph 50 % 0.00 in
13:51 61.7 °F 42.9 °F 30.22 in WNW 1.2 mph 1.2 mph 50 % 0.00 in
13:57 61.8 °F 43.0 °F 30.22 in Calm     50 % 0.00 in
13:58 61.8 °F 43.0 °F 30.22 in Calm     50 % 0.00 in
14:00 61.8 °F 43.0 °F 30.22 in WNW 2.3 mph 2.3 mph 50 % 0.00 in
14:05 61.9 °F 42.5 °F 30.22 in WSW 2.0 mph 2.0 mph 49 % 0.00 in
14:06 61.9 °F 42.5 °F 30.22 in WNW 1.2 mph 1.2 mph 49 % 0.00 in
14:11 61.8 °F 42.4 °F 30.22 in Calm   0.1 mph 49 % 0.00 in
14:12 61.9 °F 42.5 °F 30.22 in SW 1.2 mph 1.2 mph 49 % 0.00 in
14:17 62.0 °F 42.1 °F 30.22 in NW 1.2 mph 1.2 mph 48 % 0.00 in
14:22 62.0 °F 42.6 °F 30.22 in NW 1.2 mph 1.2 mph 49 % 0.00 in
14:24 62.0 °F 42.6 °F 30.22 in WNW 1.2 mph 1.2 mph 49 % 0.00 in
14:29 62.1 °F 42.7 °F 30.22 in NW 1.2 mph   49 % 0.00 in
14:35 62.2 °F 42.8 °F 30.21 in NW 2.3 mph 2.3 mph 49 % 0.00 in
14:36 62.2 °F 42.3 °F 30.21 in NW 1.2 mph   48 % 0.00 in
14:37 62.2 °F 42.3 °F 30.21 in WNW 1.2 mph 1.2 mph 48 % 0.00 in
14:42 62.0 °F 42.6 °F 30.22 in Calm   0.2 mph 49 % 0.00 in
14:45 62.0 °F 42.1 °F 30.22 in Calm     48 % 0.00 in
14:50 62.0 °F 42.6 °F 30.22 in NW 2.3 mph 2.3 mph 49 % 0.00 in
14:51 62.0 °F 42.6 °F 30.22 in WNW 1.2 mph 1.2 mph 49 % 0.00 in
14:56 61.9 °F 42.5 °F 30.22 in WSW 1.2 mph 1.2 mph 49 % 0.00 in
15:01 61.8 °F 42.4 °F 30.22 in Calm   0.1 mph 49 % 0.00 in
15:02 61.8 °F 42.4 °F 30.22 in Calm   0.3 mph 49 % 0.00 in
15:07 61.7 °F 42.3 °F 30.22 in NW 1.2 mph   49 % 0.00 in
15:13 61.7 °F 42.3 °F 30.22 in Calm     49 % 0.00 in
15:18 61.6 °F 42.2 °F 30.22 in Calm   0.5 mph 49 % 0.00 in
15:22 61.6 °F 42.2 °F 30.22 in Calm   0.1 mph 49 % 0.00 in
15:27 61.5 °F 43.2 °F 30.22 in NW 1.2 mph 1.2 mph 51 % 0.00 in
15:28 61.5 °F 43.2 °F 30.22 in NW 1.2 mph   51 % 0.00 in
15:33 61.4 °F 42.1 °F 30.22 in Calm     49 % 0.00 in
15:34 61.3 °F 42.0 °F 30.22 in Calm     49 % 0.00 in
15:39 61.2 °F 42.4 °F 30.22 in Calm     50 % 0.00 in
15:41 61.2 °F 42.4 °F 30.22 in Calm     50 % 0.00 in
15:45 61.1 °F 42.3 °F 30.22 in Calm     50 % 0.00 in
15:47 61.0 °F 42.7 °F 30.22 in Calm     51 % 0.00 in
15:52 60.8 °F 42.5 °F 30.22 in Calm     51 % 0.00 in
15:57 60.7 °F 42.5 °F 30.22 in Calm     51 % 0.00 in
15:59 60.6 °F 42.9 °F 30.22 in WNW 1.2 mph   52 % 0.00 in
16:04 60.4 °F 42.7 °F 30.22 in WNW 1.0 mph   52 % 0.00 in
16:07 60.3 °F 42.6 °F 30.22 in Calm     52 % 0.00 in
16:12 60.0 °F 42.8 °F 30.22 in Calm     53 % 0.00 in
16:14 59.8 °F 42.6 °F 30.22 in Calm     53 % 0.00 in
16:19 59.4 °F 42.7 °F 30.22 in Calm     54 % 0.00 in
16:20 59.2 °F 42.6 °F 30.22 in Calm     54 % 0.00 in
16:21 59.1 °F 42.5 °F 30.22 in Calm     54 % 0.00 in
16:26 58.4 °F 42.3 °F 30.22 in Calm     55 % 0.00 in
16:31 58.0 °F 43.3 °F 30.21 in Calm     58 % 0.00 in
16:32 57.9 °F 43.2 °F 30.22 in Calm     58 % 0.00 in
16:35 57.5 °F 43.3 °F 30.21 in Calm     59 % 0.00 in
16:40 56.8 °F 43.5 °F 30.21 in Calm     61 % 0.00 in
16:42 56.6 °F 43.7 °F 30.21 in Calm     62 % 0.00 in
16:47 55.9 °F 43.5 °F 30.21 in Calm     63 % 0.00 in
16:52 55.4 °F 43.0 °F 30.21 in Calm     63 % 0.00 in
16:53 55.2 °F 43.2 °F 30.21 in Calm     64 % 0.00 in
16:58 54.5 °F 43.0 °F 30.21 in Calm     65 % 0.00 in
17:03 53.9 °F 42.8 °F 30.21 in Calm     66 % 0.00 in
17:04 53.8 °F 42.7 °F 30.21 in Calm     66 % 0.00 in
17:09 53.2 °F 43.3 °F 30.22 in Calm     69 % 0.00 in
17:10 53.1 °F 43.2 °F 30.22 in Calm     69 % 0.00 in
17:14 52.9 °F 43.0 °F 30.22 in Calm     69 % 0.00 in
17:16 52.7 °F 43.2 °F 30.22 in Calm     70 % 0.00 in
17:21 52.4 °F 43.3 °F 30.22 in Calm     71 % 0.00 in
17:26 52.3 °F 43.2 °F 30.22 in Calm     71 % 0.00 in
17:31 52.0 °F 42.9 °F 30.22 in Calm     71 % 0.00 in
17:36 51.9 °F 42.8 °F 30.22 in Calm     71 % 0.00 in
17:40 51.8 °F 42.7 °F 30.22 in Calm     71 % 0.00 in
17:45 51.5 °F 42.8 °F 30.22 in Calm     72 % 0.00 in
17:46 51.5 °F 42.8 °F 30.22 in Calm     72 % 0.00 in
17:51 51.2 °F 42.5 °F 30.22 in Calm     72 % 0.00 in
17:52 51.1 °F 42.4 °F 30.22 in Calm     72 % 0.00 in
17:53 51.1 °F 42.4 °F 30.22 in Calm     72 % 0.00 in
17:58 50.8 °F 42.1 °F 30.22 in Calm     72 % 0.00 in
17:59 50.7 °F 42.0 °F 30.22 in Calm     72 % 0.00 in
18:04 50.1 °F 41.8 °F 30.22 in Calm     73 % 0.00 in
18:06 49.8 °F 41.8 °F 30.22 in Calm     74 % 0.00 in
18:11 49.2 °F 41.6 °F 30.23 in Calm     75 % 0.00 in
18:15 48.7 °F 41.5 °F 30.23 in Calm     76 % 0.00 in
18:17 48.5 °F 41.6 °F 30.23 in Calm     77 % 0.00 in
18:22 48.2 °F 41.7 °F 30.23 in Calm     78 % 0.00 in
18:26 48.0 °F 41.5 °F 30.23 in Calm     78 % 0.00 in
18:31 47.7 °F 41.2 °F 30.23 in Calm     78 % 0.00 in
18:36 47.3 °F 41.1 °F 30.23 in Calm     79 % 0.00 in
18:37 47.2 °F 41.0 °F 30.23 in Calm     79 % 0.00 in
18:42 47.0 °F 40.8 °F 30.23 in Calm     79 % 0.00 in
18:43 47.0 °F 40.8 °F 30.23 in Calm     79 % 0.00 in
18:45 46.9 °F 40.7 °F 30.23 in Calm     79 % 0.00 in
18:48 46.7 °F 40.9 °F 30.23 in Calm     80 % 0.00 in
18:53 47.0 °F 41.1 °F 30.23 in Calm     80 % 0.00 in
18:56 47.5 °F 41.3 °F 30.23 in Calm     79 % 0.00 in
18:59 47.7 °F 41.2 °F 30.23 in Calm     78 % 0.00 in
19:04 48.0 °F 41.1 °F 30.23 in Calm     77 % 0.00 in
19:09 48.1 °F 41.2 °F 30.23 in Calm     77 % 0.00 in
19:14 48.4 °F 41.2 °F 30.23 in Calm     76 % 0.00 in
19:19 48.3 °F 41.1 °F 30.23 in Calm     76 % 0.00 in
19:22 47.9 °F 40.7 °F 30.23 in Calm     76 % 0.00 in
19:24 47.8 °F 40.6 °F 30.23 in Calm     76 % 0.00 in
19:29 47.2 °F 40.4 °F 30.23 in Calm     77 % 0.00 in
19:34 46.8 °F 40.3 °F 30.23 in Calm     78 % 0.00 in
19:35 46.8 °F 40.3 °F 30.23 in Calm     78 % 0.00 in
19:40 46.4 °F 39.9 °F 30.23 in Calm     78 % 0.00 in
19:41 46.3 °F 39.8 °F 30.23 in Calm     78 % 0.00 in
19:42 46.3 °F 39.8 °F 30.23 in Calm     78 % 0.00 in
19:47 45.9 °F 40.1 °F 30.23 in Calm     80 % 0.00 in
19:52 45.7 °F 39.9 °F 30.23 in Calm     80 % 0.00 in
19:56 45.4 °F 39.6 °F 30.23 in Calm     80 % 0.00 in
19:57 45.4 °F 39.9 °F 30.23 in Calm     81 % 0.00 in
20:02 45.3 °F 39.8 °F 30.23 in Calm     81 % 0.00 in
20:03 45.3 °F 39.5 °F 30.23 in Calm     80 % 0.00 in
20:08 45.1 °F 39.6 °F 30.23 in Calm     81 % 0.00 in
20:10 45.1 °F 39.9 °F 30.23 in Calm     82 % 0.00 in
20:15 45.0 °F 39.5 °F 30.23 in Calm     81 % 0.00 in
20:20 44.8 °F 39.3 °F 30.23 in Calm     81 % 0.00 in
20:22 44.7 °F 39.2 °F 30.23 in Calm     81 % 0.00 in
20:27 44.4 °F 38.9 °F 30.23 in Calm     81 % 0.00 in
20:29 44.3 °F 38.8 °F 30.23 in Calm     81 % 0.00 in
20:35 44.1 °F 39.3 °F 30.23 in Calm     83 % 0.00 in
20:40 44.1 °F 39.3 °F 30.23 in Calm     83 % 0.00 in
20:45 44.0 °F 39.2 °F 30.23 in Calm     83 % 0.00 in
20:47 44.0 °F 39.2 °F 30.23 in Calm     83 % 0.00 in
20:52 43.8 °F 39.0 °F 30.23 in Calm     83 % 0.00 in
20:54 43.8 °F 39.3 °F 30.23 in Calm     84 % 0.00 in
20:59 43.8 °F 39.3 °F 30.23 in Calm     84 % 0.00 in
21:00 43.8 °F 39.3 °F 30.24 in Calm     84 % 0.00 in
21:05 43.8 °F 39.3 °F 30.24 in Calm     84 % 0.00 in
21:10 43.7 °F 39.2 °F 30.24 in Calm     84 % 0.00 in
21:15 43.6 °F 39.1 °F 30.24 in Calm     84 % 0.00 in
21:17 43.5 °F 39.0 °F 30.24 in Calm     84 % 0.00 in
21:22 43.3 °F 39.1 °F 30.24 in Calm     85 % 0.00 in
21:23 43.2 °F 39.0 °F 30.24 in Calm     85 % 0.00 in
21:28 43.1 °F 38.9 °F 30.24 in Calm     85 % 0.00 in
21:33 43.0 °F 38.8 °F 30.24 in Calm     85 % 0.00 in
21:38 42.8 °F 38.6 °F 30.24 in Calm     85 % 0.00 in
21:39 42.8 °F 38.6 °F 30.24 in Calm     85 % 0.00 in
21:44 42.6 °F 38.7 °F 30.24 in Calm     86 % 0.00 in
21:45 42.6 °F 38.7 °F 30.24 in Calm     86 % 0.00 in
21:49 42.6 °F 38.7 °F 30.24 in Calm     86 % 0.00 in
21:54 42.7 °F 39.1 °F 30.24 in Calm     87 % 0.00 in
21:55 42.7 °F 39.1 °F 30.24 in Calm     87 % 0.00 in
22:00 43.1 °F 39.2 °F 30.24 in Calm     86 % 0.00 in
22:05 43.3 °F 39.1 °F 30.24 in Calm     85 % 0.00 in
22:06 43.2 °F 39.0 °F 30.24 in Calm     85 % 0.00 in
22:11 43.1 °F 38.6 °F 30.24 in Calm     84 % 0.00 in
22:14 43.0 °F 38.5 °F 30.24 in Calm     84 % 0.00 in
22:15 42.9 °F 38.4 °F 30.24 in Calm     84 % 0.00 in
22:20 42.5 °F 38.0 °F 30.24 in Calm     84 % 0.00 in
22:21 42.4 °F 37.9 °F 30.24 in Calm     84 % 0.00 in
22:26 42.0 °F 37.5 °F 30.24 in Calm     84 % 0.00 in
22:28 41.9 °F 37.7 °F 30.25 in Calm     85 % 0.00 in
22:33 42.0 °F 38.1 °F 30.24 in Calm     86 % 0.00 in
22:35 41.9 °F 38.0 °F 30.24 in Calm     86 % 0.00 in
22:41 41.7 °F 37.8 °F 30.24 in Calm     86 % 0.00 in
22:44 41.6 °F 37.7 °F 30.24 in Calm     86 % 0.00 in
22:48 41.5 °F 37.6 °F 30.24 in Calm     86 % 0.00 in
22:53 41.5 °F 37.6 °F 30.25 in Calm     86 % 0.00 in
22:58 41.4 °F 37.5 °F 30.25 in Calm     86 % 0.00 in
23:03 41.2 °F 37.3 °F 30.25 in Calm     86 % 0.00 in
23:04 41.2 °F 37.3 °F 30.25 in Calm     86 % 0.00 in
23:05 41.2 °F 37.3 °F 30.25 in Calm     86 % 0.00 in
23:10 40.7 °F 36.8 °F 30.25 in Calm     86 % 0.00 in
23:15 40.5 °F 36.9 °F 30.25 in Calm     87 % 0.00 in
23:19 40.4 °F 36.8 °F 30.25 in Calm     87 % 0.00 in
23:24 40.5 °F 37.2 °F 30.25 in Calm     88 % 0.00 in
23:29 40.6 °F 37.3 °F 30.25 in Calm     88 % 0.00 in
23:31 40.6 °F 37.3 °F 30.24 in Calm     88 % 0.00 in
23:36 40.4 °F 37.1 °F 30.24 in Calm     88 % 0.00 in
23:37 40.4 °F 37.1 °F 30.24 in Calm     88 % 0.00 in
23:42 40.3 °F 37.0 °F 30.24 in Calm     88 % 0.00 in
23:44 40.3 °F 36.7 °F 30.24 in Calm     87 % 0.00 in
23:48 40.0 °F 36.2 °F 30.24 in Calm     86 % 0.00 in
23:51 39.7 °F 36.1 °F 30.24 in Calm     87 % 0.00 in
23:53 39.6 °F 36.3 °F 30.24 in Calm     88 % 0.00 in
23:58 39.3 °F 36.0 °F 30.24 in Calm     88 % 0.00 in
23:59 39.3 °F 36.0 °F 30.24 in Calm     88 % 0.00 in
Park Place, Exeter, Tulare County, California, USA
Compliments of Weather Underground - 3.25 mb